In Rescue
 
Open Full Screen Window  High Contrast Mode
Wind Gusting 20 knots
14
May 28, 2020 4:31 PM EDT
Weather Information
Wind Direction
  250 °
Wind Speed
  14 kt (16 mph)
Wind Gust
  20 kt (23 mph)
Altimeter
29.91 in
Visibility
10 SM
Temperature
24° C
75° F
Dewpoint
18° C
64° F
Humidity
69%
Sky Condition
Broken @ 3,800 ft
Broken @ 2,900 ft
MVFR

METAR KAXV 282031Z AUTO 25014G20KT 10SM BKN029 BKN038 24/18 A2991 RMK AO2

FAA Disclaimer: The data displayed is for advisory purposes only and is not to be used for flight planning or operations.